Flight Track Log - Related Links

Times and Time Zones

All times are in EST time to prevent confusion due to time zone crossing. See the FIN666 flight status page for this flight to view local times or setup timezone preferences in your user account.

Time Position Orientation Groundspeed Altitude Reporting Facility
EST Latitude Longitude Course Direction KTS MPH feet Rate Location/Type
Tue 07:21:00 AM 55.8486 13.1329 49° Northeast  Level Estimated
Tue 07:22:00 AM 55.9251 13.2931 50° Northeast  Level Estimated
Tue 07:23:00 AM 56.0014 13.4539 50° Northeast  Level Estimated
Tue 07:24:00 AM 56.0774 13.6154 50° Northeast  Level Estimated
Tue 07:25:00 AM 56.1533 13.7775 50° Northeast  Level Estimated
Tue 07:26:00 AM 56.2312 13.9453 50° Northeast  Level Estimated
Tue 07:27:00 AM 56.3089 14.1137 50° Northeast  Level Estimated
Tue 07:28:00 AM 56.3864 14.2827 50° Northeast  Level Estimated
Tue 07:29:00 AM 56.4636 14.4525 50° Northeast  Level Estimated
Tue 07:30:00 AM 56.5406 14.6230 51° Northeast  Level Estimated
Tue 07:31:00 AM 56.6174 14.7941 51° Northeast  Level Estimated
Tue 07:32:00 AM 56.6940 14.9660 51° Northeast  Level Estimated
Tue 07:33:00 AM 56.7702 15.1385 51° Northeast  Level Estimated
Tue 07:34:00 AM 56.8463 15.3118 51° Northeast  Level Estimated
Tue 07:35:00 AM 56.9221 15.4857 51° Northeast  Level Estimated
Tue 07:36:00 AM 56.9977 15.6604 51° Northeast  Level Estimated
Tue 07:37:00 AM 57.0730 15.8357 52° Northeast  Level Estimated
Tue 07:38:00 AM 57.1481 16.0118 52° Northeast  Level Estimated
Tue 07:39:00 AM 57.2230 16.1886 52° Northeast  Level Estimated
Tue 07:40:00 AM 57.2976 16.3661 52° Northeast  Level Estimated
Tue 07:41:00 AM 57.3719 16.5444 52° Northeast  Level Estimated
Tue 07:42:00 AM 57.4460 16.7233 52° Northeast  Level Estimated
Tue 07:43:00 AM 57.5198 16.9030 53° Northeast  Level Estimated
Tue 07:44:00 AM 57.5934 17.0834 53° Northeast  Level Estimated
Tue 07:45:00 AM 57.6667 17.2645 53° Northeast  Level Estimated
Tue 07:46:00 AM 57.7398 17.4464 53° Northeast  Level Estimated
Tue 07:47:00 AM 57.8126 17.6290 53° Northeast  Level Estimated
Tue 07:48:00 AM 57.8851 17.8124 53° Northeast  Level Estimated
Tue 07:49:00 AM 57.9574 17.9965 53° Northeast  Level Estimated
Tue 07:50:00 AM 58.0294 18.1813 54° Northeast  Level Estimated
Tue 07:51:00 AM 58.1011 18.3669 54° Northeast  Level Estimated
Tue 07:52:00 AM 58.1726 18.5532 54° Northeast  Level Estimated
Tue 07:53:00 AM 58.2438 18.7402 54° Northeast  Level Estimated
Tue 07:54:00 AM 58.3147 18.9281 54° Northeast  Level Estimated
Tue 07:55:00 AM 58.3853 19.1166 54° Northeast  Level Estimated
Tue 07:56:00 AM 58.4557 19.3060 55° Northeast  Level Estimated
Tue 07:57:00 AM 58.5258 19.4960 55° Northeast  Level Estimated
Tue 07:58:00 AM 58.5956 19.6869 55° Northeast  Level Estimated
Tue 07:59:00 AM 58.6651 19.8785 55° Northeast  Level Estimated
Tue 08:00:00 AM 58.7343 20.0709 55° Northeast  Level Estimated
Tue 08:01:00 AM 58.8032 20.2640 55° Northeast  Level Estimated
Tue 08:02:00 AM 58.8719 20.4579 56° Northeast  Level Estimated
Tue 08:03:00 AM 58.9403 20.6526 56° Northeast  Level Estimated
Tue 08:04:00 AM 59.0083 20.8480 56° Northeast  Level Estimated
Tue 08:05:00 AM 59.0761 21.0442 56° Northeast  Level Estimated
Tue 08:06:00 AM 59.1426 21.2383 56° Northeast  Level Estimated
Tue 08:07:00 AM 59.2088 21.4331 56° Northeast  Level Estimated
Tue 08:08:00 AM 59.2746 21.6286 57° Northeast  Level Estimated
Tue 08:09:00 AM 59.3402 21.8249 57° Northeast  Level Estimated
Tue 08:10:00 AM 59.4055 22.0220 57° Northeast  Level Estimated
Tue 08:11:00 AM 59.4705 22.2198 57° Northeast  Level Estimated
Tue 08:12:00 AM 59.5352 22.4184 57° Northeast  Level Estimated
Tue 08:13:00 AM 59.5996 22.6178 57° Northeast  Level Estimated
Tue 08:14:00 AM 59.6637 22.8179 58° Northeast  Level Estimated
Tue 08:15:00 AM 59.7275 23.0188 58° Northeast  Level Estimated
Tue 08:16:00 AM 59.7910 23.2204 58° Northeast  Level Estimated
Tue 08:17:00 AM 59.8542 23.4228 58° Northeast  Level Estimated
Tue 08:18:00 AM 59.9170 23.6260 58° Northeast  Level Estimated
Tue 08:19:00 AM 59.9796 23.8299 58° Northeast  Level Estimated
Tue 08:20:00 AM 60.0418 24.0347 59° Northeast  Level Estimated
Tue 08:21:00 AM 60.1037 24.2402 59° Northeast  Level Estimated
Tue 08:22:00 AM 60.1653 24.4464 59° Northeast  Level Estimated
Tue 08:23:00 AM 60.2266 24.6535 59° Northeast  Level Estimated
Tue 08:24:00 AM 60.2875 24.8613 59° Northeast  Level Estimated
Tue 08:25:00 AM 60.3172 24.9633 60° Northeast  Level Estimated
Tue 08:26:00 AM 60.3172 24.9633 37° Northeast  Level Estimated
Tue 08:27:00 AM 60.3172 24.9633 37° Northeast  Level Estimated
Tue 08:28:00 AM 60.3172 24.9633 37° Northeast  Level Estimated
Tue 08:29:00 AM 60.3172 24.9633 37° Northeast  Level Estimated
Tue 08:30:00 AM 60.3172 24.9633 37° Northeast  Level Estimated
Tue 08:31:00 AM 60.3172 24.9633 37° Northeast  Level Estimated
Tue 08:32:00 AM 60.3172 24.9633 37° Northeast  Level Estimated
Tue 08:33:00 AM 60.3172 24.9633 37° Northeast  Level Estimated
Tue 08:34:00 AM 60.3172 24.9633 37° Northeast  Level Estimated
Tue 08:35:00 AM 60.3172 24.9633 37° Northeast  Level Estimated
Tue 08:36:00 AM 60.3172 24.9633 37° Northeast  Level Estimated
Tue 08:37:00 AM 60.3172 24.9633 37° Northeast  Level Estimated
Tue 08:38:00 AM 60.3172 24.9633 37° Northeast  Level Estimated
Tue 08:39:00 AM 60.3172 24.9633 37° Northeast  Level Estimated

Login

Don't have an account? Register now (free) for customized features, flight alerts, and more!